sensor_id;sensor_type;location;lat;lon;timestamp;temperature;humidity
13616;DHT22;6879;51.368;6.782;2023-02-01T00:01:30;6.50;99.90
13616;DHT22;6879;51.368;6.782;2023-02-01T00:04:00;6.50;99.90
13616;DHT22;6879;51.368;6.782;2023-02-01T00:06:29;6.60;99.90
13616;DHT22;6879;51.368;6.782;2023-02-01T00:08:57;6.60;99.90
13616;DHT22;6879;51.368;6.782;2023-02-01T00:11:26;6.60;99.90
13616;DHT22;6879;51.368;6.782;2023-02-01T00:13:56;6.60;99.90
13616;DHT22;6879;51.368;6.782;2023-02-01T00:16:26;6.60;99.90
13616;DHT22;6879;51.368;6.782;2023-02-01T00:18:58;6.60;99.90
13616;DHT22;6879;51.368;6.782;2023-02-01T00:21:29;6.60;99.90
13616;DHT22;6879;51.368;6.782;2023-02-01T00:24:01;6.60;99.90
13616;DHT22;6879;51.368;6.782;2023-02-01T00:26:31;6.60;99.90
13616;DHT22;6879;51.368;6.782;2023-02-01T00:29:02;6.60;99.90
13616;DHT22;6879;51.368;6.782;2023-02-01T00:31:31;6.60;99.90
13616;DHT22;6879;51.368;6.782;2023-02-01T00:33:59;6.60;99.90
13616;DHT22;6879;51.368;6.782;2023-02-01T00:36:29;6.60;99.90
13616;DHT22;6879;51.368;6.782;2023-02-01T00:38:58;6.60;99.90
13616;DHT22;6879;51.368;6.782;2023-02-01T00:41:26;6.60;99.90
13616;DHT22;6879;51.368;6.782;2023-02-01T00:43:55;6.60;99.90
13616;DHT22;6879;51.368;6.782;2023-02-01T00:46:24;6.60;99.90
13616;DHT22;6879;51.368;6.782;2023-02-01T00:48:53;6.60;99.90
13616;DHT22;6879;51.368;6.782;2023-02-01T00:51:23;6.50;99.90
13616;DHT22;6879;51.368;6.782;2023-02-01T00:53:56;6.50;99.90
13616;DHT22;6879;51.368;6.782;2023-02-01T00:56:25;6.40;99.90
13616;DHT22;6879;51.368;6.782;2023-02-01T00:58:55;6.40;99.90
13616;DHT22;6879;51.368;6.782;2023-02-01T01:01:25;6.30;99.90
13616;DHT22;6879;51.368;6.782;2023-02-01T01:03:56;6.30;99.90
13616;DHT22;6879;51.368;6.782;2023-02-01T01:06:26;6.40;99.90
13616;DHT22;6879;51.368;6.782;2023-02-01T01:08:58;6.40;99.90
13616;DHT22;6879;51.368;6.782;2023-02-01T01:11:28;6.50;99.90
13616;DHT22;6879;51.368;6.782;2023-02-01T01:13:57;6.40;99.90
13616;DHT22;6879;51.368;6.782;2023-02-01T01:16:28;6.50;99.90
13616;DHT22;6879;51.368;6.782;2023-02-01T01:18:57;6.60;99.90
13616;DHT22;6879;51.368;6.782;2023-02-01T01:21:26;6.60;99.90
13616;DHT22;6879;51.368;6.782;2023-02-01T01:23:56;6.60;99.90
13616;DHT22;6879;51.368;6.782;2023-02-01T01:26:27;6.60;99.90
13616;DHT22;6879;51.368;6.782;2023-02-01T01:28:56;6.60;99.90
13616;DHT22;6879;51.368;6.782;2023-02-01T01:31:25;6.60;99.90
13616;DHT22;6879;51.368;6.782;2023-02-01T01:33:55;6.50;99.90
13616;DHT22;6879;51.368;6.782;2023-02-01T01:36:25;6.50;99.90
13616;DHT22;6879;51.368;6.782;2023-02-01T01:38:55;6.40;99.90
13616;DHT22;6879;51.368;6.782;2023-02-01T01:41:28;6.40;99.90
13616;DHT22;6879;51.368;6.782;2023-02-01T01:44:03;6.40;99.90
13616;DHT22;6879;51.368;6.782;2023-02-01T01:46:34;6.30;99.90
13616;DHT22;6879;51.368;6.782;2023-02-01T01:49:07;6.30;99.90
13616;DHT22;6879;51.368;6.782;2023-02-01T01:51:38;6.30;99.90
13616;DHT22;6879;51.368;6.782;2023-02-01T01:54:13;6.30;99.90
13616;DHT22;6879;51.368;6.782;2023-02-01T01:56:47;6.30;99.90
13616;DHT22;6879;51.368;6.782;2023-02-01T01:59:17;6.20;99.90
13616;DHT22;6879;51.368;6.782;2023-02-01T02:01:46;6.20;99.90
13616;DHT22;6879;51.368;6.782;2023-02-01T02:04:15;6.10;99.90
13616;DHT22;6879;51.368;6.782;2023-02-01T02:06:48;6.10;99.90
13616;DHT22;6879;51.368;6.782;2023-02-01T02:09:19;6.00;99.90
13616;DHT22;6879;51.368;6.782;2023-02-01T02:11:48;6.00;99.90
13616;DHT22;6879;51.368;6.782;2023-02-01T02:14:20;6.00;99.90
13616;DHT22;6879;51.368;6.782;2023-02-01T02:17:12;5.90;99.90
13616;DHT22;6879;51.368;6.782;2023-02-01T02:20:22;5.90;99.90
13616;DHT22;6879;51.368;6.782;2023-02-01T02:23:36;5.80;99.90
13616;DHT22;6879;51.368;6.782;2023-02-01T02:26:35;5.70;99.90
13616;DHT22;6879;51.368;6.782;2023-02-01T02:29:21;5.70;99.90
13616;DHT22;6879;51.368;6.782;2023-02-01T02:32:16;5.70;99.90
13616;DHT22;6879;51.368;6.782;2023-02-01T02:34:55;5.60;99.90
13616;DHT22;6879;51.368;6.782;2023-02-01T02:37:29;5.50;99.90
13616;DHT22;6879;51.368;6.782;2023-02-01T02:40:06;5.50;99.90
13616;DHT22;6879;51.368;6.782;2023-02-01T02:42:41;5.40;99.90
13616;DHT22;6879;51.368;6.782;2023-02-01T02:45:40;5.40;99.90
13616;DHT22;6879;51.368;6.782;2023-02-01T02:48:30;5.30;99.90
13616;DHT22;6879;51.368;6.782;2023-02-01T02:51:05;5.30;99.90
13616;DHT22;6879;51.368;6.782;2023-02-01T02:54:02;5.30;99.90
13616;DHT22;6879;51.368;6.782;2023-02-01T02:56:52;5.20;99.90
13616;DHT22;6879;51.368;6.782;2023-02-01T02:59:40;5.20;99.90
13616;DHT22;6879;51.368;6.782;2023-02-01T03:02:30;5.20;99.90
13616;DHT22;6879;51.368;6.782;2023-02-01T03:05:17;5.30;99.90
13616;DHT22;6879;51.368;6.782;2023-02-01T03:08:08;5.40;99.90
13616;DHT22;6879;51.368;6.782;2023-02-01T03:10:44;5.40;99.90
13616;DHT22;6879;51.368;6.782;2023-02-01T03:13:20;5.40;99.90
13616;DHT22;6879;51.368;6.782;2023-02-01T03:15:55;5.50;99.90
13616;DHT22;6879;51.368;6.782;2023-02-01T03:18:30;5.60;99.90
13616;DHT22;6879;51.368;6.782;2023-02-01T03:21:02;5.60;99.90
13616;DHT22;6879;51.368;6.782;2023-02-01T03:23:35;5.60;99.90
13616;DHT22;6879;51.368;6.782;2023-02-01T03:26:08;5.70;99.90
13616;DHT22;6879;51.368;6.782;2023-02-01T03:28:43;5.70;99.90
13616;DHT22;6879;51.368;6.782;2023-02-01T03:31:12;5.70;99.90
13616;DHT22;6879;51.368;6.782;2023-02-01T03:33:41;5.80;99.90
13616;DHT22;6879;51.368;6.782;2023-02-01T03:36:19;5.80;99.90
13616;DHT22;6879;51.368;6.782;2023-02-01T03:38:55;5.80;99.90
13616;DHT22;6879;51.368;6.782;2023-02-01T03:41:31;5.80;99.90
13616;DHT22;6879;51.368;6.782;2023-02-01T03:44:06;5.80;99.90
13616;DHT22;6879;51.368;6.782;2023-02-01T03:46:41;5.80;99.90
13616;DHT22;6879;51.368;6.782;2023-02-01T03:49:18;5.90;99.90
13616;DHT22;6879;51.368;6.782;2023-02-01T03:51:50;5.90;99.90
13616;DHT22;6879;51.368;6.782;2023-02-01T03:54:21;5.90;99.90
13616;DHT22;6879;51.368;6.782;2023-02-01T03:56:51;5.90;99.90
13616;DHT22;6879;51.368;6.782;2023-02-01T03:59:25;5.90;99.90
13616;DHT22;6879;51.368;6.782;2023-02-01T04:01:54;5.90;99.90
13616;DHT22;6879;51.368;6.782;2023-02-01T04:04:22;5.90;99.90
13616;DHT22;6879;51.368;6.782;2023-02-01T04:06:53;5.90;99.90
13616;DHT22;6879;51.368;6.782;2023-02-01T04:09:23;5.90;99.90
13616;DHT22;6879;51.368;6.782;2023-02-01T04:11:52;5.90;99.90
13616;DHT22;6879;51.368;6.782;2023-02-01T04:14:20;5.80;99.90
13616;DHT22;6879;51.368;6.782;2023-02-01T04:16:51;5.80;99.90
13616;DHT22;6879;51.368;6.782;2023-02-01T04:19:20;5.70;99.90
13616;DHT22;6879;51.368;6.782;2023-02-01T04:21:48;5.70;99.90
13616;DHT22;6879;51.368;6.782;2023-02-01T04:24:17;5.60;99.90
13616;DHT22;6879;51.368;6.782;2023-02-01T04:26:47;5.50;99.90
13616;DHT22;6879;51.368;6.782;2023-02-01T04:29:19;5.50;99.90
13616;DHT22;6879;51.368;6.782;2023-02-01T04:31:47;5.50;99.90
13616;DHT22;6879;51.368;6.782;2023-02-01T04:34:16;5.50;99.90
13616;DHT22;6879;51.368;6.782;2023-02-01T04:36:45;5.50;99.90
13616;DHT22;6879;51.368;6.782;2023-02-01T04:39:13;5.50;99.90
13616;DHT22;6879;51.368;6.782;2023-02-01T04:41:42;5.40;99.90
13616;DHT22;6879;51.368;6.782;2023-02-01T04:44:14;5.50;99.90
13616;DHT22;6879;51.368;6.782;2023-02-01T04:46:43;5.50;99.90
13616;DHT22;6879;51.368;6.782;2023-02-01T04:49:12;5.70;99.90
13616;DHT22;6879;51.368;6.782;2023-02-01T04:51:41;5.80;99.90
13616;DHT22;6879;51.368;6.782;2023-02-01T04:54:10;5.90;99.90
13616;DHT22;6879;51.368;6.782;2023-02-01T04:56:39;5.90;99.90
13616;DHT22;6879;51.368;6.782;2023-02-01T04:59:09;5.90;99.90
13616;DHT22;6879;51.368;6.782;2023-02-01T05:01:39;5.80;99.90
13616;DHT22;6879;51.368;6.782;2023-02-01T05:04:08;5.70;99.90
13616;DHT22;6879;51.368;6.782;2023-02-01T05:06:37;5.70;99.90
13616;DHT22;6879;51.368;6.782;2023-02-01T05:09:05;5.70;99.90
13616;DHT22;6879;51.368;6.782;2023-02-01T05:11:34;5.70;99.90
13616;DHT22;6879;51.368;6.782;2023-02-01T05:14:19;5.60;99.90
13616;DHT22;6879;51.368;6.782;2023-02-01T05:16:49;5.50;99.90
13616;DHT22;6879;51.368;6.782;2023-02-01T05:19:18;5.50;99.90
13616;DHT22;6879;51.368;6.782;2023-02-01T05:21:46;5.50;99.90
13616;DHT22;6879;51.368;6.782;2023-02-01T05:24:15;5.50;99.90
13616;DHT22;6879;51.368;6.782;2023-02-01T05:26:47;5.60;99.90
13616;DHT22;6879;51.368;6.782;2023-02-01T05:29:19;5.50;99.90
13616;DHT22;6879;51.368;6.782;2023-02-01T05:31:49;5.50;99.90
13616;DHT22;6879;51.368;6.782;2023-02-01T05:34:17;5.40;99.90
13616;DHT22;6879;51.368;6.782;2023-02-01T05:36:46;5.40;99.90
13616;DHT22;6879;51.368;6.782;2023-02-01T05:39:15;5.40;99.90
13616;DHT22;6879;51.368;6.782;2023-02-01T05:41:43;5.40;99.90
13616;DHT22;6879;51.368;6.782;2023-02-01T05:44:12;5.30;99.90
13616;DHT22;6879;51.368;6.782;2023-02-01T05:46:40;5.30;99.90
13616;DHT22;6879;51.368;6.782;2023-02-01T05:49:11;5.20;99.90
13616;DHT22;6879;51.368;6.782;2023-02-01T05:51:39;5.20;99.90
13616;DHT22;6879;51.368;6.782;2023-02-01T05:54:08;5.20;99.90
13616;DHT22;6879;51.368;6.782;2023-02-01T05:56:37;5.20;99.90
13616;DHT22;6879;51.368;6.782;2023-02-01T05:59:08;5.20;99.90
13616;DHT22;6879;51.368;6.782;2023-02-01T06:01:36;5.10;99.90
13616;DHT22;6879;51.368;6.782;2023-02-01T06:04:05;5.10;99.90
13616;DHT22;6879;51.368;6.782;2023-02-01T06:06:35;5.10;99.90
13616;DHT22;6879;51.368;6.782;2023-02-01T06:09:05;5.10;99.90
13616;DHT22;6879;51.368;6.782;2023-02-01T06:11:33;5.10;99.90
13616;DHT22;6879;51.368;6.782;2023-02-01T06:14:02;5.20;99.90
13616;DHT22;6879;51.368;6.782;2023-02-01T06:16:31;5.30;99.90
13616;DHT22;6879;51.368;6.782;2023-02-01T06:19:00;5.30;99.90
13616;DHT22;6879;51.368;6.782;2023-02-01T06:21:28;5.40;99.90
13616;DHT22;6879;51.368;6.782;2023-02-01T06:23:58;5.50;99.90
13616;DHT22;6879;51.368;6.782;2023-02-01T06:26:27;5.60;99.90
13616;DHT22;6879;51.368;6.782;2023-02-01T06:28:56;5.60;99.90
13616;DHT22;6879;51.368;6.782;2023-02-01T06:31:25;5.70;99.90
13616;DHT22;6879;51.368;6.782;2023-02-01T06:33:56;5.80;99.90
13616;DHT22;6879;51.368;6.782;2023-02-01T06:36:25;5.80;99.90
13616;DHT22;6879;51.368;6.782;2023-02-01T06:38:53;5.80;99.90
13616;DHT22;6879;51.368;6.782;2023-02-01T06:41:25;5.80;99.90
13616;DHT22;6879;51.368;6.782;2023-02-01T06:43:56;5.80;99.90
13616;DHT22;6879;51.368;6.782;2023-02-01T06:46:25;5.90;99.90
13616;DHT22;6879;51.368;6.782;2023-02-01T06:48:54;5.90;99.90
13616;DHT22;6879;51.368;6.782;2023-02-01T06:51:24;5.90;99.90
13616;DHT22;6879;51.368;6.782;2023-02-01T06:53:53;5.90;99.90
13616;DHT22;6879;51.368;6.782;2023-02-01T06:56:22;5.90;99.90
13616;DHT22;6879;51.368;6.782;2023-02-01T06:58:52;5.90;99.90
13616;DHT22;6879;51.368;6.782;2023-02-01T07:01:21;5.90;99.90
13616;DHT22;6879;51.368;6.782;2023-02-01T07:03:50;6.00;99.90
13616;DHT22;6879;51.368;6.782;2023-02-01T07:06:19;6.00;99.90
13616;DHT22;6879;51.368;6.782;2023-02-01T07:08:48;6.00;99.90
13616;DHT22;6879;51.368;6.782;2023-02-01T07:11:19;6.00;99.90
13616;DHT22;6879;51.368;6.782;2023-02-01T07:13:48;6.10;99.90
13616;DHT22;6879;51.368;6.782;2023-02-01T07:16:19;6.10;99.90
13616;DHT22;6879;51.368;6.782;2023-02-01T07:18:49;6.10;99.90
13616;DHT22;6879;51.368;6.782;2023-02-01T07:21:25;6.10;99.90
13616;DHT22;6879;51.368;6.782;2023-02-01T07:23:55;6.10;99.90
13616;DHT22;6879;51.368;6.782;2023-02-01T07:26:29;6.10;99.90
13616;DHT22;6879;51.368;6.782;2023-02-01T07:28:58;6.10;99.90
13616;DHT22;6879;51.368;6.782;2023-02-01T07:31:41;6.10;99.90
13616;DHT22;6879;51.368;6.782;2023-02-01T07:34:43;6.20;99.90
13616;DHT22;6879;51.368;6.782;2023-02-01T07:37:21;6.20;99.90
13616;DHT22;6879;51.368;6.782;2023-02-01T07:40:23;6.20;99.90
13616;DHT22;6879;51.368;6.782;2023-02-01T07:43:00;6.30;99.90
13616;DHT22;6879;51.368;6.782;2023-02-01T07:45:33;6.30;99.90
13616;DHT22;6879;51.368;6.782;2023-02-01T07:48:04;6.30;99.90
13616;DHT22;6879;51.368;6.782;2023-02-01T07:50:33;6.40;99.90
13616;DHT22;6879;51.368;6.782;2023-02-01T07:53:02;6.40;99.90
13616;DHT22;6879;51.368;6.782;2023-02-01T07:55:32;6.40;99.90
13616;DHT22;6879;51.368;6.782;2023-02-01T07:58:03;6.50;99.90
13616;DHT22;6879;51.368;6.782;2023-02-01T08:00:40;6.50;99.90
13616;DHT22;6879;51.368;6.782;2023-02-01T08:07:50;6.50;99.90
13616;DHT22;6879;51.368;6.782;2023-02-01T08:10:19;6.50;99.90
13616;DHT22;6879;51.368;6.782;2023-02-01T08:12:48;6.50;99.90
13616;DHT22;6879;51.368;6.782;2023-02-01T08:15:19;6.60;99.90
13616;DHT22;6879;51.368;6.782;2023-02-01T08:17:47;6.60;99.90
13616;DHT22;6879;51.368;6.782;2023-02-01T08:20:17;6.60;99.90
13616;DHT22;6879;51.368;6.782;2023-02-01T08:22:47;6.60;99.90
13616;DHT22;6879;51.368;6.782;2023-02-01T08:28:36;6.50;99.90
13616;DHT22;6879;51.368;6.782;2023-02-01T08:31:10;6.50;99.90
13616;DHT22;6879;51.368;6.782;2023-02-01T08:33:42;6.60;99.90
13616;DHT22;6879;51.368;6.782;2023-02-01T08:36:15;6.60;99.90
13616;DHT22;6879;51.368;6.782;2023-02-01T08:38:48;6.60;99.90
13616;DHT22;6879;51.368;6.782;2023-02-01T08:41:28;6.60;99.90
13616;DHT22;6879;51.368;6.782;2023-02-01T08:44:01;6.60;99.90
13616;DHT22;6879;51.368;6.782;2023-02-01T08:46:32;6.60;99.90
13616;DHT22;6879;51.368;6.782;2023-02-01T08:49:03;6.60;99.90
13616;DHT22;6879;51.368;6.782;2023-02-01T08:52:16;6.70;99.90
13616;DHT22;6879;51.368;6.782;2023-02-01T08:55:02;6.70;99.90
13616;DHT22;6879;51.368;6.782;2023-02-01T08:57:42;6.80;99.90
13616;DHT22;6879;51.368;6.782;2023-02-01T09:00:16;6.80;99.90
13616;DHT22;6879;51.368;6.782;2023-02-01T09:02:45;6.80;99.90
13616;DHT22;6879;51.368;6.782;2023-02-01T09:05:14;6.80;99.90
13616;DHT22;6879;51.368;6.782;2023-02-01T09:07:57;6.80;99.90
13616;DHT22;6879;51.368;6.782;2023-02-01T09:10:37;6.80;99.90
13616;DHT22;6879;51.368;6.782;2023-02-01T09:13:09;6.80;99.90
13616;DHT22;6879;51.368;6.782;2023-02-01T09:15:54;6.70;99.90
13616;DHT22;6879;51.368;6.782;2023-02-01T09:18:25;6.70;99.90
13616;DHT22;6879;51.368;6.782;2023-02-01T09:20:54;6.70;99.90
13616;DHT22;6879;51.368;6.782;2023-02-01T09:23:26;6.60;99.90
13616;DHT22;6879;51.368;6.782;2023-02-01T09:25:59;6.60;99.90
13616;DHT22;6879;51.368;6.782;2023-02-01T09:28:31;6.70;99.90
13616;DHT22;6879;51.368;6.782;2023-02-01T09:31:03;6.80;99.90
13616;DHT22;6879;51.368;6.782;2023-02-01T09:33:43;6.80;99.90
13616;DHT22;6879;51.368;6.782;2023-02-01T09:36:19;6.90;99.90
13616;DHT22;6879;51.368;6.782;2023-02-01T09:38:53;6.90;99.90
13616;DHT22;6879;51.368;6.782;2023-02-01T09:41:35;7.00;99.90
13616;DHT22;6879;51.368;6.782;2023-02-01T09:44:17;7.00;99.90
13616;DHT22;6879;51.368;6.782;2023-02-01T09:46:48;7.10;99.90
13616;DHT22;6879;51.368;6.782;2023-02-01T09:49:22;7.00;99.90
13616;DHT22;6879;51.368;6.782;2023-02-01T09:51:52;7.00;99.90
13616;DHT22;6879;51.368;6.782;2023-02-01T09:54:25;7.00;99.90
13616;DHT22;6879;51.368;6.782;2023-02-01T09:57:02;7.10;99.90
13616;DHT22;6879;51.368;6.782;2023-02-01T09:59:37;7.20;99.90
13616;DHT22;6879;51.368;6.782;2023-02-01T10:02:16;7.20;99.90
13616;DHT22;6879;51.368;6.782;2023-02-01T10:04:46;7.20;99.90
13616;DHT22;6879;51.368;6.782;2023-02-01T10:07:22;7.30;99.90
13616;DHT22;6879;51.368;6.782;2023-02-01T10:10:01;7.40;99.90
13616;DHT22;6879;51.368;6.782;2023-02-01T10:15:46;7.30;99.90
13616;DHT22;6879;51.368;6.782;2023-02-01T10:19:05;7.40;99.90
13616;DHT22;6879;51.368;6.782;2023-02-01T10:22:00;7.60;99.90
13616;DHT22;6879;51.368;6.782;2023-02-01T10:24:39;7.70;99.90
13616;DHT22;6879;51.368;6.782;2023-02-01T10:27:13;7.70;99.90
13616;DHT22;6879;51.368;6.782;2023-02-01T10:29:44;7.80;99.90
13616;DHT22;6879;51.368;6.782;2023-02-01T10:32:44;7.80;99.90
13616;DHT22;6879;51.368;6.782;2023-02-01T10:35:31;7.90;99.90
13616;DHT22;6879;51.368;6.782;2023-02-01T10:38:05;7.90;99.90
13616;DHT22;6879;51.368;6.782;2023-02-01T10:40:45;7.80;99.90
13616;DHT22;6879;51.368;6.782;2023-02-01T10:43:37;7.70;99.90
13616;DHT22;6879;51.368;6.782;2023-02-01T10:46:08;7.70;99.90
13616;DHT22;6879;51.368;6.782;2023-02-01T10:48:40;7.60;99.90
13616;DHT22;6879;51.368;6.782;2023-02-01T10:51:14;7.60;99.90
13616;DHT22;6879;51.368;6.782;2023-02-01T10:53:50;7.60;99.90
13616;DHT22;6879;51.368;6.782;2023-02-01T10:56:44;7.60;99.90
13616;DHT22;6879;51.368;6.782;2023-02-01T10:59:30;7.60;99.90
13616;DHT22;6879;51.368;6.782;2023-02-01T11:02:02;7.70;99.90
13616;DHT22;6879;51.368;6.782;2023-02-01T11:04:34;7.70;99.90
13616;DHT22;6879;51.368;6.782;2023-02-01T11:07:18;7.80;99.90
13616;DHT22;6879;51.368;6.782;2023-02-01T11:09:50;7.90;99.90
13616;DHT22;6879;51.368;6.782;2023-02-01T11:12:27;7.90;99.90
13616;DHT22;6879;51.368;6.782;2023-02-01T11:15:00;8.10;99.90
13616;DHT22;6879;51.368;6.782;2023-02-01T11:17:33;8.30;99.90
13616;DHT22;6879;51.368;6.782;2023-02-01T11:20:08;8.40;99.40
13616;DHT22;6879;51.368;6.782;2023-02-01T11:23:29;8.30;99.30
13616;DHT22;6879;51.368;6.782;2023-02-01T11:26:20;8.20;99.20
13616;DHT22;6879;51.368;6.782;2023-02-01T11:29:18;8.10;99.70
13616;DHT22;6879;51.368;6.782;2023-02-01T11:32:05;8.00;99.90
13616;DHT22;6879;51.368;6.782;2023-02-01T11:34:43;8.00;99.90
13616;DHT22;6879;51.368;6.782;2023-02-01T11:37:18;8.00;99.90
13616;DHT22;6879;51.368;6.782;2023-02-01T11:39:55;8.00;99.90
13616;DHT22;6879;51.368;6.782;2023-02-01T11:42:33;8.10;99.90
13616;DHT22;6879;51.368;6.782;2023-02-01T11:45:19;8.20;99.90
13616;DHT22;6879;51.368;6.782;2023-02-01T11:47:53;8.20;99.90
13616;DHT22;6879;51.368;6.782;2023-02-01T11:50:33;8.10;99.90
13616;DHT22;6879;51.368;6.782;2023-02-01T11:53:26;8.00;99.90
13616;DHT22;6879;51.368;6.782;2023-02-01T11:56:06;7.90;99.90
13616;DHT22;6879;51.368;6.782;2023-02-01T12:02:41;7.60;99.90
13616;DHT22;6879;51.368;6.782;2023-02-01T12:06:22;7.60;99.90
13616;DHT22;6879;51.368;6.782;2023-02-01T12:18:38;8.00;99.90
13616;DHT22;6879;51.368;6.782;2023-02-01T12:21:27;8.10;99.90
13616;DHT22;6879;51.368;6.782;2023-02-01T12:24:36;8.10;99.90
13616;DHT22;6879;51.368;6.782;2023-02-01T12:27:35;8.20;99.90
13616;DHT22;6879;51.368;6.782;2023-02-01T12:33:21;8.20;99.90
13616;DHT22;6879;51.368;6.782;2023-02-01T12:40:21;8.10;99.90
13616;DHT22;6879;51.368;6.782;2023-02-01T12:43:03;8.10;99.90
13616;DHT22;6879;51.368;6.782;2023-02-01T12:45:39;8.10;99.90
13616;DHT22;6879;51.368;6.782;2023-02-01T13:01:40;8.10;99.90
13616;DHT22;6879;51.368;6.782;2023-02-01T13:09:39;8.10;99.90
13616;DHT22;6879;51.368;6.782;2023-02-01T13:13:22;8.10;99.90
13616;DHT22;6879;51.368;6.782;2023-02-01T13:16:11;8.00;99.90
13616;DHT22;6879;51.368;6.782;2023-02-01T13:18:53;7.90;99.90
13616;DHT22;6879;51.368;6.782;2023-02-01T13:21:39;7.80;99.90
13616;DHT22;6879;51.368;6.782;2023-02-01T13:24:33;7.70;99.90
13616;DHT22;6879;51.368;6.782;2023-02-01T13:27:19;7.80;99.90
13616;DHT22;6879;51.368;6.782;2023-02-01T13:30:15;7.90;99.90
13616;DHT22;6879;51.368;6.782;2023-02-01T13:33:14;8.00;99.90
13616;DHT22;6879;51.368;6.782;2023-02-01T13:36:28;8.00;99.90
13616;DHT22;6879;51.368;6.782;2023-02-01T13:39:28;8.00;99.90
13616;DHT22;6879;51.368;6.782;2023-02-01T13:42:14;8.10;99.90
13616;DHT22;6879;51.368;6.782;2023-02-01T13:45:05;8.20;99.90
13616;DHT22;6879;51.368;6.782;2023-02-01T13:47:45;8.20;99.60
13616;DHT22;6879;51.368;6.782;2023-02-01T13:50:23;8.30;99.40
13616;DHT22;6879;51.368;6.782;2023-02-01T13:53:04;8.30;99.40
13616;DHT22;6879;51.368;6.782;2023-02-01T13:55:38;8.40;98.80
13616;DHT22;6879;51.368;6.782;2023-02-01T13:58:18;8.50;98.70
13616;DHT22;6879;51.368;6.782;2023-02-01T14:04:53;8.60;98.10
13616;DHT22;6879;51.368;6.782;2023-02-01T14:07:35;8.70;98.10
13616;DHT22;6879;51.368;6.782;2023-02-01T14:13:31;8.80;97.80
13616;DHT22;6879;51.368;6.782;2023-02-01T14:16:16;8.80;97.40
13616;DHT22;6879;51.368;6.782;2023-02-01T14:19:00;8.80;97.40
13616;DHT22;6879;51.368;6.782;2023-02-01T14:21:47;8.80;97.70
13616;DHT22;6879;51.368;6.782;2023-02-01T14:24:25;8.70;97.60
13616;DHT22;6879;51.368;6.782;2023-02-01T14:27:02;8.70;97.70
13616;DHT22;6879;51.368;6.782;2023-02-01T14:29:40;8.70;98.00
13616;DHT22;6879;51.368;6.782;2023-02-01T14:32:16;8.80;98.00
13616;DHT22;6879;51.368;6.782;2023-02-01T14:34:55;8.80;97.70
13616;DHT22;6879;51.368;6.782;2023-02-01T14:37:59;8.80;97.90
13616;DHT22;6879;51.368;6.782;2023-02-01T14:45:59;8.90;97.80
13616;DHT22;6879;51.368;6.782;2023-02-01T14:55:55;8.90;97.90
13616;DHT22;6879;51.368;6.782;2023-02-01T14:57:20;8.90;98.00
13616;DHT22;6879;51.368;6.782;2023-02-01T15:00:43;8.90;98.00
13616;DHT22;6879;51.368;6.782;2023-02-01T15:03:34;8.90;98.10
13616;DHT22;6879;51.368;6.782;2023-02-01T15:08:33;8.90;98.30
13616;DHT22;6879;51.368;6.782;2023-02-01T15:10:15;8.80;98.40
13616;DHT22;6879;51.368;6.782;2023-02-01T15:12:56;8.80;98.30
13616;DHT22;6879;51.368;6.782;2023-02-01T15:15:39;8.80;98.50
13616;DHT22;6879;51.368;6.782;2023-02-01T15:18:17;8.80;98.30
13616;DHT22;6879;51.368;6.782;2023-02-01T15:20:59;8.90;98.50
13616;DHT22;6879;51.368;6.782;2023-02-01T15:27:59;8.80;98.40
13616;DHT22;6879;51.368;6.782;2023-02-01T15:31:12;8.90;98.40
13616;DHT22;6879;51.368;6.782;2023-02-01T15:34:48;8.80;98.50
13616;DHT22;6879;51.368;6.782;2023-02-01T15:38:43;8.80;98.70
13616;DHT22;6879;51.368;6.782;2023-02-01T15:41:36;8.80;98.50
13616;DHT22;6879;51.368;6.782;2023-02-01T15:44:20;8.80;98.70
13616;DHT22;6879;51.368;6.782;2023-02-01T15:46:50;8.80;98.50
13616;DHT22;6879;51.368;6.782;2023-02-01T15:49:36;8.80;98.70
13616;DHT22;6879;51.368;6.782;2023-02-01T15:52:20;8.70;98.70
13616;DHT22;6879;51.368;6.782;2023-02-01T15:54:56;8.60;98.90
13616;DHT22;6879;51.368;6.782;2023-02-01T15:57:34;8.60;98.90
13616;DHT22;6879;51.368;6.782;2023-02-01T16:00:22;8.60;99.00
13616;DHT22;6879;51.368;6.782;2023-02-01T16:02:58;8.60;99.20
13616;DHT22;6879;51.368;6.782;2023-02-01T16:05:34;8.60;99.20
13616;DHT22;6879;51.368;6.782;2023-02-01T16:08:10;8.50;99.50
13616;DHT22;6879;51.368;6.782;2023-02-01T16:10:46;8.50;99.60
13616;DHT22;6879;51.368;6.782;2023-02-01T16:13:22;8.50;99.60
13616;DHT22;6879;51.368;6.782;2023-02-01T16:15:55;8.50;99.80
13616;DHT22;6879;51.368;6.782;2023-02-01T16:18:32;8.50;99.90
13616;DHT22;6879;51.368;6.782;2023-02-01T16:21:04;8.40;99.90
13616;DHT22;6879;51.368;6.782;2023-02-01T16:23:38;8.40;99.90
13616;DHT22;6879;51.368;6.782;2023-02-01T16:26:07;8.40;99.90
13616;DHT22;6879;51.368;6.782;2023-02-01T16:28:40;8.40;99.90
13616;DHT22;6879;51.368;6.782;2023-02-01T16:31:17;8.40;99.90
13616;DHT22;6879;51.368;6.782;2023-02-01T16:33:49;8.30;99.90
13616;DHT22;6879;51.368;6.782;2023-02-01T16:36:42;8.30;99.90
13616;DHT22;6879;51.368;6.782;2023-02-01T16:39:16;8.30;99.90
13616;DHT22;6879;51.368;6.782;2023-02-01T16:41:45;8.30;99.90
13616;DHT22;6879;51.368;6.782;2023-02-01T16:44:49;8.30;99.90
13616;DHT22;6879;51.368;6.782;2023-02-01T17:34:39;8.30;99.90
13616;DHT22;6879;51.368;6.782;2023-02-01T17:37:31;8.30;99.90
13616;DHT22;6879;51.368;6.782;2023-02-01T17:40:28;8.40;99.90
13616;DHT22;6879;51.368;6.782;2023-02-01T17:43:49;8.40;99.90
13616;DHT22;6879;51.368;6.782;2023-02-01T17:47:30;8.40;99.90
13616;DHT22;6879;51.368;6.782;2023-02-01T18:32:57;8.20;99.90
13616;DHT22;6879;51.368;6.782;2023-02-01T18:35:28;8.30;99.90
13616;DHT22;6879;51.368;6.782;2023-02-01T18:38:01;8.30;99.90
13616;DHT22;6879;51.368;6.782;2023-02-01T18:40:33;8.30;99.90
13616;DHT22;6879;51.368;6.782;2023-02-01T18:43:02;8.30;99.90
13616;DHT22;6879;51.368;6.782;2023-02-01T18:45:44;8.30;99.90
13616;DHT22;6879;51.368;6.782;2023-02-01T18:48:15;8.30;99.90
13616;DHT22;6879;51.368;6.782;2023-02-01T18:50:44;8.30;99.90
13616;DHT22;6879;51.368;6.782;2023-02-01T18:53:17;8.20;99.90
13616;DHT22;6879;51.368;6.782;2023-02-01T18:55:47;8.30;99.90
13616;DHT22;6879;51.368;6.782;2023-02-01T18:58:17;8.30;99.90
13616;DHT22;6879;51.368;6.782;2023-02-01T19:00:51;8.30;99.90
13616;DHT22;6879;51.368;6.782;2023-02-01T19:03:29;8.20;99.90
13616;DHT22;6879;51.368;6.782;2023-02-01T19:05:58;8.30;99.90
13616;DHT22;6879;51.368;6.782;2023-02-01T19:08:33;8.30;99.90
13616;DHT22;6879;51.368;6.782;2023-02-01T19:11:12;8.30;99.90
13616;DHT22;6879;51.368;6.782;2023-02-01T19:13:41;8.30;99.90
13616;DHT22;6879;51.368;6.782;2023-02-01T19:16:13;8.30;99.90
13616;DHT22;6879;51.368;6.782;2023-02-01T19:18:42;8.30;99.90
13616;DHT22;6879;51.368;6.782;2023-02-01T19:21:21;8.30;99.90
13616;DHT22;6879;51.368;6.782;2023-02-01T19:23:51;8.30;99.90
13616;DHT22;6879;51.368;6.782;2023-02-01T19:26:20;8.30;99.90
13616;DHT22;6879;51.368;6.782;2023-02-01T19:28:48;8.40;99.90
13616;DHT22;6879;51.368;6.782;2023-02-01T19:31:17;8.40;99.90
13616;DHT22;6879;51.368;6.782;2023-02-01T19:33:46;8.40;99.90
13616;DHT22;6879;51.368;6.782;2023-02-01T19:36:14;8.50;99.90
13616;DHT22;6879;51.368;6.782;2023-02-01T19:38:43;8.50;99.90
13616;DHT22;6879;51.368;6.782;2023-02-01T19:41:13;8.50;99.90
13616;DHT22;6879;51.368;6.782;2023-02-01T19:43:41;8.50;99.90
13616;DHT22;6879;51.368;6.782;2023-02-01T19:46:11;8.50;99.90
13616;DHT22;6879;51.368;6.782;2023-02-01T19:48:39;8.50;99.90
13616;DHT22;6879;51.368;6.782;2023-02-01T19:51:08;8.50;99.90